createdAt,value
2022-12-29T00:01:50.643Z,14.53
2022-12-29T00:04:19.004Z,15.83
2022-12-29T00:06:47.597Z,15.23
2022-12-29T00:09:17.530Z,15.13
2022-12-29T00:11:45.861Z,15.03
2022-12-29T00:14:32.374Z,14.50
2022-12-29T00:17:02.278Z,15.03
2022-12-29T00:19:48.013Z,14.87
2022-12-29T00:22:34.513Z,15.53
2022-12-29T00:25:20.487Z,16.07
2022-12-29T00:28:07.775Z,15.13
2022-12-29T00:30:55.636Z,15.10
2022-12-29T00:33:48.024Z,15.30
2022-12-29T00:36:19.870Z,15.73
2022-12-29T00:39:08.903Z,15.40
2022-12-29T00:41:54.655Z,15.93
2022-12-29T00:44:22.980Z,15.57
2022-12-29T00:46:51.306Z,15.43
2022-12-29T00:49:40.819Z,15.63
2022-12-29T00:52:11.248Z,20.55
2022-12-29T00:54:41.038Z,17.00
2022-12-29T00:57:10.884Z,17.80
2022-12-29T00:59:40.163Z,17.17
2022-12-29T01:02:08.905Z,16.90
2022-12-29T01:04:38.852Z,17.13
2022-12-29T01:07:07.285Z,16.20
2022-12-29T01:09:53.005Z,17.33
2022-12-29T01:12:41.582Z,17.63
2022-12-29T01:15:12.137Z,17.63
2022-12-29T01:17:40.545Z,18.50
2022-12-29T01:20:11.830Z,17.90
2022-12-29T01:22:40.263Z,18.80
2022-12-29T01:25:09.926Z,17.93
2022-12-29T01:27:38.212Z,22.60
2022-12-29T01:30:07.871Z,19.10
2022-12-29T01:32:36.202Z,19.83
2022-12-29T01:35:04.799Z,19.73
2022-12-29T01:37:34.472Z,17.73
2022-12-29T01:40:02.746Z,21.77
2022-12-29T01:42:31.123Z,18.97
2022-12-29T01:45:00.310Z,19.13
2022-12-29T01:47:36.926Z,18.63
2022-12-29T01:50:11.128Z,18.83
2022-12-29T01:52:44.715Z,18.07
2022-12-29T01:55:14.230Z,17.53
2022-12-29T01:57:46.064Z,19.43
2022-12-29T02:00:16.114Z,18.47
2022-12-29T02:02:50.102Z,17.47
2022-12-29T02:05:25.539Z,17.67
2022-12-29T02:07:56.226Z,18.27
2022-12-29T02:10:26.830Z,17.70
2022-12-29T02:12:55.967Z,17.90
2022-12-29T02:15:30.047Z,18.97
2022-12-29T02:18:16.574Z,18.30
2022-12-29T02:21:39.836Z,18.00
2022-12-29T02:24:38.217Z,17.67
2022-12-29T02:27:45.054Z,20.57
2022-12-29T02:30:38.704Z,21.20
2022-12-29T02:33:15.614Z,19.60
2022-12-29T02:35:51.417Z,18.73
2022-12-29T02:38:30.709Z,19.53
2022-12-29T02:41:08.132Z,18.93
2022-12-29T02:43:41.090Z,18.90
2022-12-29T02:46:17.202Z,17.60
2022-12-29T02:48:53.592Z,19.17
2022-12-29T02:51:28.055Z,20.42
2022-12-29T02:54:15.148Z,19.27
2022-12-29T02:56:43.509Z,19.50
2022-12-29T02:59:13.088Z,18.77
2022-12-29T03:02:19.859Z,18.90
2022-12-29T03:05:00.828Z,21.65
2022-12-29T03:07:41.112Z,17.57
2022-12-29T03:10:20.232Z,18.43
2022-12-29T03:13:12.891Z,17.50
2022-12-29T03:16:02.520Z,20.10
2022-12-29T03:18:40.892Z,16.67
2022-12-29T03:21:14.718Z,17.07
2022-12-29T03:23:48.734Z,18.57
2022-12-29T03:26:19.625Z,16.37
2022-12-29T03:28:53.292Z,16.80
2022-12-29T03:31:23.972Z,16.50
2022-12-29T03:33:55.241Z,16.80
2022-12-29T03:36:30.518Z,15.97
2022-12-29T03:39:06.782Z,16.57
2022-12-29T03:41:36.668Z,15.70
2022-12-29T03:44:07.648Z,15.80
2022-12-29T03:46:36.056Z,15.17
2022-12-29T03:49:05.748Z,15.93
2022-12-29T03:51:34.032Z,16.13
2022-12-29T03:54:02.671Z,15.83
2022-12-29T03:56:31.027Z,16.03
2022-12-29T03:58:59.382Z,15.40
2022-12-29T04:01:27.676Z,15.17
2022-12-29T04:03:56.023Z,16.40
2022-12-29T04:06:25.802Z,15.70
2022-12-29T04:08:54.139Z,15.80
2022-12-29T04:11:26.073Z,16.33
2022-12-29T04:13:56.728Z,14.87
2022-12-29T04:16:25.052Z,16.90
2022-12-29T04:18:53.540Z,16.83
2022-12-29T04:21:21.929Z,15.83
2022-12-29T04:23:51.616Z,16.13
2022-12-29T04:26:19.918Z,17.60
2022-12-29T04:28:48.258Z,15.03
2022-12-29T04:31:16.560Z,19.15
2022-12-29T04:33:46.954Z,16.93
2022-12-29T04:36:15.162Z,16.13
2022-12-29T04:38:43.520Z,15.80
2022-12-29T04:41:13.236Z,16.10
2022-12-29T04:43:41.602Z,15.83
2022-12-29T04:46:09.940Z,17.07
2022-12-29T04:48:38.249Z,17.13
2022-12-29T04:51:06.750Z,16.00
2022-12-29T04:53:35.098Z,15.53
2022-12-29T04:56:03.430Z,17.37
2022-12-29T04:58:33.132Z,15.83
2022-12-29T05:01:01.699Z,15.57
2022-12-29T05:03:30.060Z,16.73
2022-12-29T05:05:59.251Z,16.43
2022-12-29T05:08:28.525Z,15.97
2022-12-29T05:10:57.081Z,16.50
2022-12-29T05:13:25.430Z,16.73
2022-12-29T05:15:56.084Z,17.07
2022-12-29T05:18:24.545Z,16.67
2022-12-29T05:20:53.120Z,15.30
2022-12-29T05:23:21.484Z,16.77
2022-12-29T05:25:49.793Z,17.00
2022-12-29T05:28:18.088Z,16.30
2022-12-29T05:30:49.910Z,17.13
2022-12-29T05:33:20.316Z,16.97
2022-12-29T05:35:48.896Z,16.90
2022-12-29T05:38:17.352Z,16.97
2022-12-29T05:40:46.863Z,16.43
2022-12-29T05:43:15.167Z,17.37
2022-12-29T05:45:43.459Z,16.43
2022-12-29T05:48:11.722Z,16.77
2022-12-29T05:50:41.349Z,16.73
2022-12-29T05:53:09.638Z,16.90
2022-12-29T05:55:40.927Z,17.07
2022-12-29T05:58:12.118Z,18.50
2022-12-29T06:00:40.379Z,18.40
2022-12-29T06:03:08.897Z,18.83
2022-12-29T06:05:37.384Z,20.83
2022-12-29T06:08:07.499Z,18.73
2022-12-29T06:10:35.755Z,20.17
2022-12-29T06:13:04.872Z,15.70
2022-12-29T06:15:33.283Z,17.70
2022-12-29T06:18:01.621Z,20.33
2022-12-29T06:20:30.320Z,17.83
2022-12-29T06:22:58.614Z,17.07
2022-12-29T06:25:29.511Z,17.90
2022-12-29T06:27:57.865Z,18.70
2022-12-29T06:30:26.242Z,20.88
2022-12-29T06:32:55.397Z,19.70
2022-12-29T06:35:24.453Z,17.43
2022-12-29T06:37:52.850Z,17.87
2022-12-29T06:40:21.197Z,17.93
2022-12-29T06:42:50.957Z,18.23
2022-12-29T06:45:19.425Z,16.30
2022-12-29T06:47:47.777Z,16.90
2022-12-29T06:50:16.139Z,17.37
2022-12-29T06:52:44.539Z,18.17
2022-12-29T06:55:12.791Z,32.77
2022-12-29T06:57:41.117Z,29.30
2022-12-29T07:00:12.179Z,25.10
2022-12-29T07:02:40.636Z,22.67
2022-12-29T07:05:10.504Z,23.80
2022-12-29T07:07:38.845Z,20.00
2022-12-29T07:10:07.751Z,21.17
2022-12-29T07:12:36.042Z,18.17
2022-12-29T07:15:04.422Z,20.67
2022-12-29T07:17:34.143Z,18.00
2022-12-29T07:20:02.498Z,16.80
2022-12-29T07:22:30.854Z,17.00
2022-12-29T07:24:59.222Z,15.37
2022-12-29T07:27:27.519Z,17.80
2022-12-29T07:29:55.906Z,16.07
2022-12-29T07:32:24.163Z,15.00
2022-12-29T07:34:54.815Z,14.90
2022-12-29T07:37:23.081Z,13.97
2022-12-29T07:39:51.377Z,14.80
2022-12-29T07:42:19.641Z,14.23
2022-12-29T07:44:47.964Z,13.73
2022-12-29T07:47:16.221Z,14.07
2022-12-29T07:49:44.495Z,14.67
2022-12-29T07:52:14.155Z,15.27
2022-12-29T07:54:42.402Z,14.37
2022-12-29T07:57:10.875Z,15.60
2022-12-29T07:59:39.209Z,12.77
2022-12-29T08:02:07.676Z,13.70
2022-12-29T08:04:36.028Z,11.87
2022-12-29T08:07:04.342Z,12.63
2022-12-29T08:09:33.992Z,12.13
2022-12-29T08:12:02.386Z,12.07
2022-12-29T08:14:30.706Z,12.25
2022-12-29T08:16:59.017Z,12.40
2022-12-29T08:19:27.317Z,11.20
2022-12-29T08:21:55.603Z,11.70
2022-12-29T08:24:24.016Z,11.70
2022-12-29T08:26:53.905Z,12.17
2022-12-29T08:29:22.882Z,11.90
2022-12-29T08:31:51.256Z,11.83
2022-12-29T08:34:19.594Z,11.00
2022-12-29T08:36:47.897Z,10.33
2022-12-29T08:39:22.287Z,12.60
2022-12-29T08:41:50.550Z,11.30
2022-12-29T08:44:20.243Z,9.43
2022-12-29T08:46:48.603Z,10.37
2022-12-29T08:49:17.081Z,9.17
2022-12-29T08:51:45.402Z,10.57
2022-12-29T08:54:13.817Z,10.43
2022-12-29T08:56:42.125Z,10.20
2022-12-29T08:59:10.505Z,10.43
2022-12-29T09:01:41.744Z,10.20
2022-12-29T09:04:15.452Z,8.07
2022-12-29T09:06:44.620Z,7.43
2022-12-29T09:09:13.136Z,8.07
2022-12-29T09:11:41.536Z,7.73
2022-12-29T09:14:09.881Z,8.93
2022-12-29T09:16:39.913Z,8.77
2022-12-29T09:19:08.261Z,8.33
2022-12-29T09:21:36.542Z,8.30
2022-12-29T09:24:05.274Z,6.37
2022-12-29T09:26:33.535Z,7.95
2022-12-29T09:29:01.862Z,7.83
2022-12-29T09:31:30.259Z,7.03
2022-12-29T09:33:59.933Z,7.50
2022-12-29T09:36:28.264Z,7.60
2022-12-29T09:38:57.638Z,7.83
2022-12-29T09:41:32.106Z,6.53
2022-12-29T09:44:15.016Z,6.70
2022-12-29T09:46:46.011Z,7.63
2022-12-29T09:49:26.717Z,7.00
2022-12-29T09:51:57.352Z,6.30
2022-12-29T09:55:00.103Z,6.50
2022-12-29T09:57:36.233Z,6.73
2022-12-29T10:00:08.769Z,6.93
2022-12-29T10:02:41.426Z,6.53
2022-12-29T10:05:22.852Z,6.80
2022-12-29T10:07:59.509Z,4.90
2022-12-29T10:10:37.119Z,5.50
2022-12-29T10:13:22.846Z,5.40
2022-12-29T10:15:59.803Z,4.97
2022-12-29T10:19:00.720Z,4.50
2022-12-29T10:21:45.294Z,4.70
2022-12-29T10:24:15.036Z,5.17
2022-12-29T10:26:46.302Z,4.83
2022-12-29T10:29:20.054Z,5.00
2022-12-29T10:31:51.587Z,4.30
2022-12-29T10:34:25.487Z,4.90
2022-12-29T10:37:00.656Z,4.40
2022-12-29T10:39:33.895Z,4.43
2022-12-29T10:42:12.084Z,4.83
2022-12-29T10:44:40.658Z,4.57
2022-12-29T10:47:15.753Z,4.87
2022-12-29T10:49:45.252Z,3.93
2022-12-29T10:52:16.767Z,3.83
2022-12-29T10:54:52.008Z,4.30
2022-12-29T10:57:29.142Z,5.07
2022-12-29T10:59:57.624Z,4.70
2022-12-29T11:02:44.226Z,4.87
2022-12-29T11:05:20.453Z,5.20
2022-12-29T11:07:52.274Z,5.50
2022-12-29T11:10:23.397Z,5.73
2022-12-29T11:13:02.016Z,5.60
2022-12-29T11:15:41.501Z,5.03
2022-12-29T11:18:21.507Z,4.50
2022-12-29T11:20:50.974Z,5.13
2022-12-29T11:23:33.279Z,5.13
2022-12-29T11:26:22.268Z,5.20
2022-12-29T11:29:13.660Z,5.23
2022-12-29T11:31:46.372Z,5.77
2022-12-29T11:34:20.648Z,4.30
2022-12-29T11:36:50.032Z,4.97
2022-12-29T11:39:32.164Z,4.03
2022-12-29T11:42:01.739Z,4.33
2022-12-29T11:44:32.079Z,4.43
2022-12-29T11:47:00.450Z,3.80
2022-12-29T11:49:29.339Z,4.10
2022-12-29T11:51:58.552Z,4.37
2022-12-29T11:54:31.696Z,3.90
2022-12-29T11:57:01.295Z,3.50
2022-12-29T11:59:50.570Z,4.40
2022-12-29T12:02:44.164Z,3.40
2022-12-29T12:05:33.146Z,4.20
2022-12-29T12:08:07.907Z,4.30
2022-12-29T12:10:46.029Z,3.80
2022-12-29T12:13:23.398Z,4.70
2022-12-29T12:15:57.479Z,3.90
2022-12-29T12:18:34.954Z,4.60
2022-12-29T12:21:12.899Z,4.40
2022-12-29T12:24:16.202Z,4.10
2022-12-29T12:27:00.912Z,3.83
2022-12-29T12:29:39.443Z,4.17
2022-12-29T12:32:16.264Z,4.33
2022-12-29T12:34:46.554Z,4.17
2022-12-29T12:37:43.688Z,3.83
2022-12-29T12:40:43.901Z,3.90
2022-12-29T12:43:45.236Z,3.87
2022-12-29T12:46:48.159Z,4.50
2022-12-29T12:49:43.885Z,3.90
2022-12-29T12:52:22.741Z,4.65
2022-12-29T12:55:05.721Z,4.63
2022-12-29T12:57:47.717Z,4.13
2022-12-29T13:00:20.226Z,4.30
2022-12-29T13:03:01.855Z,3.50
2022-12-29T13:06:06.380Z,4.37
2022-12-29T13:08:51.247Z,4.70
2022-12-29T13:11:26.192Z,4.13
2022-12-29T13:14:17.305Z,4.40
2022-12-29T13:16:54.979Z,3.73
2022-12-29T13:19:33.314Z,3.73
2022-12-29T13:22:08.757Z,3.67
2022-12-29T13:24:48.905Z,4.00
2022-12-29T13:27:24.351Z,3.60
2022-12-29T13:30:03.095Z,3.60
2022-12-29T13:32:46.638Z,4.00
2022-12-29T13:35:39.251Z,4.27
2022-12-29T13:38:13.631Z,3.97
2022-12-29T13:40:47.038Z,4.18
2022-12-29T13:43:16.233Z,4.20
2022-12-29T13:45:46.009Z,4.25
2022-12-29T13:48:22.341Z,4.55
2022-12-29T13:50:56.110Z,5.40
2022-12-29T13:53:36.397Z,5.13
2022-12-29T13:56:09.617Z,5.38
2022-12-29T13:58:44.157Z,5.75
2022-12-29T14:01:21.217Z,5.35
2022-12-29T14:03:52.926Z,5.43
2022-12-29T14:06:26.865Z,5.65
2022-12-29T14:08:57.836Z,5.90
2022-12-29T14:11:33.109Z,5.27
2022-12-29T14:14:12.922Z,5.47
2022-12-29T14:16:42.183Z,5.10
2022-12-29T14:19:18.248Z,6.00
2022-12-29T14:21:54.500Z,6.00
2022-12-29T14:24:42.960Z,6.03
2022-12-29T14:27:45.906Z,5.87
2022-12-29T14:30:46.724Z,5.87
2022-12-29T14:33:16.267Z,6.37
2022-12-29T14:35:50.683Z,6.90
2022-12-29T14:38:25.307Z,6.23
2022-12-29T14:40:54.456Z,7.43
2022-12-29T14:43:28.232Z,7.70
2022-12-29T14:46:00.553Z,8.37
2022-12-29T14:48:41.628Z,8.97
2022-12-29T14:51:23.400Z,8.13
2022-12-29T14:53:53.200Z,7.63
2022-12-29T14:56:27.163Z,8.30
2022-12-29T14:58:57.775Z,8.23
2022-12-29T15:01:34.046Z,7.00
2022-12-29T15:04:09.499Z,7.93
2022-12-29T15:06:42.831Z,7.53
2022-12-29T15:09:25.500Z,6.80
2022-12-29T15:11:55.849Z,7.43
2022-12-29T15:14:36.249Z,8.10
2022-12-29T15:17:12.752Z,8.07
2022-12-29T15:19:41.057Z,7.63
2022-12-29T15:22:11.911Z,8.50
2022-12-29T15:24:44.424Z,8.00
2022-12-29T15:27:16.416Z,7.17
2022-12-29T15:29:47.032Z,8.20
2022-12-29T15:32:24.282Z,8.37
2022-12-29T15:34:54.544Z,8.40
2022-12-29T15:37:26.186Z,9.27
2022-12-29T15:39:56.024Z,9.13
2022-12-29T15:42:48.912Z,10.03
2022-12-29T15:45:17.632Z,10.90
2022-12-29T15:47:50.374Z,10.47
2022-12-29T15:50:28.185Z,10.13
2022-12-29T15:52:58.702Z,11.03
2022-12-29T15:55:32.365Z,10.57
2022-12-29T15:58:02.996Z,11.43
2022-12-29T16:00:33.797Z,13.02
2022-12-29T16:03:04.045Z,11.70
2022-12-29T16:05:36.691Z,12.90
2022-12-29T16:08:24.897Z,12.67
2022-12-29T16:10:54.858Z,10.83
2022-12-29T16:13:27.995Z,11.87
2022-12-29T16:16:03.455Z,10.47
2022-12-29T16:18:36.340Z,11.33
2022-12-29T16:21:06.520Z,11.27
2022-12-29T16:23:39.495Z,12.07
2022-12-29T16:26:18.149Z,15.13
2022-12-29T16:28:49.006Z,14.57
2022-12-29T16:31:23.233Z,13.47
2022-12-29T16:33:56.078Z,14.53
2022-12-29T16:36:33.328Z,13.37
2022-12-29T16:39:34.369Z,13.93
2022-12-29T16:42:03.303Z,13.60
2022-12-29T16:44:32.926Z,14.03
2022-12-29T16:47:08.442Z,13.67
2022-12-29T16:49:37.947Z,15.90
2022-12-29T16:52:15.766Z,13.50
2022-12-29T16:54:52.544Z,13.73
2022-12-29T16:57:25.569Z,14.33
2022-12-29T16:59:56.365Z,13.00
2022-12-29T17:02:26.775Z,13.40
2022-12-29T17:04:55.396Z,14.53
2022-12-29T17:07:25.395Z,13.97
2022-12-29T17:09:55.958Z,14.00
2022-12-29T17:12:26.865Z,14.15
2022-12-29T17:14:57.728Z,13.57
2022-12-29T17:17:33.668Z,14.17
2022-12-29T17:20:05.416Z,14.73
2022-12-29T17:22:34.236Z,14.47
2022-12-29T17:25:04.861Z,16.23
2022-12-29T17:27:37.375Z,14.07
2022-12-29T17:30:11.576Z,14.23
2022-12-29T17:32:40.341Z,15.00
2022-12-29T17:35:15.765Z,15.87
2022-12-29T17:37:45.101Z,15.97
2022-12-29T17:40:18.219Z,16.53
2022-12-29T17:42:48.519Z,17.00
2022-12-29T17:45:19.197Z,16.30
2022-12-29T17:47:47.570Z,17.17
2022-12-29T17:50:17.669Z,19.00
2022-12-29T17:52:51.170Z,17.50
2022-12-29T17:55:23.384Z,16.53
2022-12-29T17:57:52.248Z,17.70
2022-12-29T18:00:22.333Z,17.53
2022-12-29T18:02:51.101Z,19.23
2022-12-29T18:05:21.545Z,18.10
2022-12-29T18:07:50.657Z,19.43
2022-12-29T18:10:20.774Z,18.13
2022-12-29T18:12:51.167Z,19.00
2022-12-29T18:15:21.692Z,18.50
2022-12-29T18:17:50.704Z,19.97
2022-12-29T18:20:19.009Z,18.80
2022-12-29T18:22:47.296Z,19.70
2022-12-29T18:25:25.133Z,18.97
2022-12-29T18:27:53.436Z,16.87
2022-12-29T18:30:21.939Z,17.07
2022-12-29T18:32:50.221Z,18.73
2022-12-29T18:35:21.897Z,17.77
2022-12-29T18:37:50.169Z,18.60
2022-12-29T18:40:19.595Z,16.60
2022-12-29T18:42:49.313Z,16.97
2022-12-29T18:45:20.047Z,18.00
2022-12-29T18:47:48.363Z,15.47
2022-12-29T18:50:17.673Z,16.27
2022-12-29T18:52:46.752Z,14.43
2022-12-29T18:55:18.888Z,16.63
2022-12-29T18:57:48.917Z,15.20
2022-12-29T19:00:19.104Z,15.60
2022-12-29T19:02:48.023Z,15.80
2022-12-29T19:05:22.315Z,16.20
2022-12-29T19:07:51.256Z,16.13
2022-12-29T19:10:20.358Z,16.80
2022-12-29T19:12:51.720Z,16.47
2022-12-29T19:15:25.426Z,16.00
2022-12-29T19:18:16.567Z,18.07
2022-12-29T19:20:45.029Z,18.77
2022-12-29T19:23:14.943Z,18.07
2022-12-29T19:25:43.929Z,17.70
2022-12-29T19:28:19.647Z,18.40
2022-12-29T19:30:51.857Z,17.10
2022-12-29T19:33:21.437Z,17.07
2022-12-29T19:35:50.159Z,18.67
2022-12-29T19:38:18.770Z,16.87
2022-12-29T19:40:48.604Z,16.93
2022-12-29T19:43:18.628Z,17.17
2022-12-29T19:45:47.030Z,17.30
2022-12-29T19:48:18.057Z,17.40
2022-12-29T19:50:46.829Z,18.17
2022-12-29T19:53:15.635Z,18.20
2022-12-29T19:55:44.754Z,17.70
2022-12-29T19:58:13.501Z,17.13
2022-12-29T20:00:43.948Z,20.87
2022-12-29T20:03:12.828Z,16.90
2022-12-29T20:05:41.858Z,17.10
2022-12-29T20:08:10.089Z,17.13
2022-12-29T20:10:38.388Z,17.30
2022-12-29T20:13:06.715Z,16.97
2022-12-29T20:15:35.085Z,18.03
2022-12-29T20:18:14.183Z,18.10
2022-12-29T20:20:43.148Z,18.13
2022-12-29T20:23:11.519Z,18.63
2022-12-29T20:25:45.190Z,18.40
2022-12-29T20:28:14.486Z,17.30
2022-12-29T20:30:42.773Z,17.33
2022-12-29T20:33:12.469Z,19.57
2022-12-29T20:35:40.752Z,17.97
2022-12-29T20:38:09.217Z,17.87
2022-12-29T20:40:44.273Z,16.33
2022-12-29T20:43:16.720Z,17.40
2022-12-29T20:45:45.750Z,16.37
2022-12-29T20:48:15.447Z,17.67
2022-12-29T20:50:43.769Z,16.87
2022-12-29T20:53:12.812Z,16.97
2022-12-29T20:55:41.487Z,16.77
2022-12-29T20:58:26.166Z,17.70
2022-12-29T21:00:55.134Z,16.60
2022-12-29T21:03:25.433Z,17.57
2022-12-29T21:05:55.378Z,19.03
2022-12-29T21:08:23.744Z,17.90
2022-12-29T21:10:53.982Z,17.63
2022-12-29T21:13:22.215Z,19.00
2022-12-29T21:15:50.610Z,18.20
2022-12-29T21:18:18.849Z,18.57
2022-12-29T21:20:56.535Z,17.93
2022-12-29T21:23:24.878Z,18.23
2022-12-29T21:25:54.140Z,18.43
2022-12-29T21:28:23.709Z,18.07
2022-12-29T21:30:52.610Z,17.50
2022-12-29T21:33:22.432Z,18.03
2022-12-29T21:35:52.110Z,17.60
2022-12-29T21:38:20.400Z,17.77
2022-12-29T21:40:48.768Z,16.97
2022-12-29T21:43:17.016Z,18.70
2022-12-29T21:45:44.263Z,15.97
2022-12-29T21:48:25.185Z,17.77
2022-12-29T21:51:14.658Z,17.47
2022-12-29T21:53:44.241Z,16.13
2022-12-29T21:56:14.456Z,15.97
2022-12-29T21:59:02.067Z,15.90
2022-12-29T22:01:49.392Z,18.10
2022-12-29T22:04:37.304Z,16.87
2022-12-29T22:07:25.928Z,17.00
2022-12-29T22:10:11.639Z,18.47
2022-12-29T22:12:58.958Z,16.60
2022-12-29T22:15:28.688Z,16.30
2022-12-29T22:17:57.794Z,17.53
2022-12-29T22:20:28.315Z,18.03
2022-12-29T22:22:58.208Z,16.77
2022-12-29T22:25:26.839Z,17.97
2022-12-29T22:27:59.169Z,17.77
2022-12-29T22:30:28.392Z,18.00
2022-12-29T22:32:58.574Z,17.20
2022-12-29T22:35:26.871Z,16.63
2022-12-29T22:37:55.230Z,16.03
2022-12-29T22:40:24.977Z,18.10
2022-12-29T22:42:53.337Z,17.60
2022-12-29T22:45:21.996Z,17.53
2022-12-29T22:47:50.321Z,17.80
2022-12-29T22:50:18.672Z,18.40
2022-12-29T22:52:46.952Z,18.30
2022-12-29T22:55:15.223Z,20.75
2022-12-29T22:57:44.909Z,17.70
2022-12-29T23:00:13.576Z,18.43
2022-12-29T23:02:42.078Z,18.43
2022-12-29T23:05:11.472Z,16.37
2022-12-29T23:07:39.836Z,18.23
2022-12-29T23:10:08.953Z,17.53
2022-12-29T23:12:37.428Z,18.03
2022-12-29T23:15:08.281Z,17.73
2022-12-29T23:17:37.253Z,18.67
2022-12-29T23:20:07.228Z,18.17
2022-12-29T23:22:35.534Z,18.27
2022-12-29T23:25:03.785Z,18.63
2022-12-29T23:27:32.222Z,17.10
2022-12-29T23:30:00.511Z,17.03
2022-12-29T23:32:30.199Z,17.70
2022-12-29T23:34:58.490Z,17.33
2022-12-29T23:37:26.712Z,18.57
2022-12-29T23:39:54.990Z,18.07
2022-12-29T23:42:23.227Z,19.23
2022-12-29T23:44:51.450Z,19.10
2022-12-29T23:47:19.732Z,17.37
2022-12-29T23:49:49.346Z,17.90
2022-12-29T23:52:17.617Z,17.97
2022-12-29T23:54:45.852Z,17.87
2022-12-29T23:57:14.133Z,16.50
2022-12-29T23:59:42.613Z,18.00
